Search for airport 
image banner adimage banner adimage banner ad
image banner ad

3PS9 - Risker Field

Located in Bulger, United States

ICAO - 3PS9, IATA -

Data provided by Airmate  

General information

Coordinates: N40°22'42" W80°20'58"
Elevation is 1100 feet MSL.
 
View others Airports in Pennsylvania

Operational data

Special qualification required
Current time UTC:
Current local time:
Weather at : KPIT - Pittsburgh Intl ( 16 km )
METAR: KPIT 091351Z 09007KT 4SM RA BR FEW029 OVC050 05/03 A2999 RMK AO2 SLP168 P0015 T00500033
TAF: KPIT 091120Z 0912/1018 16005KT P6SM -RA OVC040 FM091400 12008KT 4SM -RA OVC030 FM091600 09011KT 3SM RA OVC007 FM092300 01010KT 4SM -SHRA OVC009 FM100500 35008KT P6SM OVC005 FM101000 32008KT P6SM BKN010 FM101400 31009KT P6SM SCT015 BKN040
View NOTAMs / SUP AIP / TFR affecting this airport [VIEW]
Communications frequencies: [VIEW]

Runways:

RWY identifierQFULength (ft)Width (ft)SurfaceLDA (ft)
081855100GRASS
261855100GRASS

Airport contact information

Address: Bulger United States

Satellite view of 3PS9